Airfield :
LOGIN :

Register | Disclaimer

   EN    FR    IT 

 










Legend :    VFR   Marginal VFR   IFR   Intensive IFR   Very Intensive IFR
Visi :
Ceiling :
>= 8 km
>= 3000ft
5 to 8 km
1000 to 3000 ft
1500m to 5 km
500 to 1000 ft
800 to 1500m
200 to 500 ft
< 800m
< 200 ft
Symbols :   Thunderstorms  Fog  Heavy snow  Heavy precipitations  Wind > 20 kt
SIGMETs :     Misc.  Thunderstorms  Icing  Turbulence  Mountain Waves  Volcanic Ashes






- Airport Elevation : 171 ft
- IATA code : EGC


LFBE - Bergerac

CURRENT METAR :
  • 101230Z AUTO 07005KT 9000 NSC 07/07 Q1028 NOSIG

EXPIRED METARs :
  • 101200Z AUTO 05005KT 7000 FEW002 06/06 Q1028 NOSIG
  • 101130Z AUTO 06005KT 2300 BR VV/// 05/04 Q1029 BECMG CAVOK
  • 101100Z AUTO 05004KT 0650 0600 R27/0900D FG VV/// 04/04 Q1030 BECMG CAVOK
  • 101030Z AUTO 06005KT 0300 0250 R27/0350N FG VV/// 04/03 Q1030 BECMG CAVOK
  • 101000Z AUTO 06005KT 0450 0400 R27/0600U FG VV/// 02/02 Q1030 BECMG CAVOK

TAF TAF LFBE
Valid from the 10 at 12:00 until the 11 at 12:00 UTC


101100Z 1012/1112 06005KT 4000 BR NSC
BECMG 1012/1014 CAVOK
TEMPO 1103/1106 -RA OVC040
BECMG 1108/1110 NSW SCT030



MET'MAP, your aeronautical weather chart ! - Copyright ORBIFLY December 2007 - Disclaimer

ORBIFLY MET'MAP TEAM :

Programming & Development : Alexandra Zaïnal
Concept & original design : Baudouin d'Aumeries
Assistance for programming : Marc-Olivier Méhu
Technical & hardware support : Manuel Goepfert

Contact : metmap@orbifly.com




SOURCES & CREDITS :

   NOAA